Terminal Aerodrome Forecast
Issued by NWS Charleston, SC

Home | Current Version | Previous Version | Text Only | Print | Product List | Glossary On
Versions: 1 2 3 4 5 6 7 8 9 10 11 12 13 14 15
000
FTUS42 KCHS 210538
TAFSAV
TAF
KSAV 210538Z 2106/2206 05004KT P6SM SCT040 BKN200
     FM211600 08007KT P6SM VCSH SCT020 OVC040
      TEMPO 2117/2120 5SM -RA BR OVC030
     FM220200 02003KT P6SM SCT008 OVC020=

USA.gov is the U.S. government's official web portal to all federal, state and local government web resources and services.